PWSweather.com
Personal Weather Stations
Station Observations
KB2SBX
Sugarloaf, Sugarloaf, PA 18249

SugarloafSugarloaf, PA 18249

Lat: 41.0126685, Lon: -76.1082041

Elevation: 1030

Station Type: WS-2080

http://sugarloafpaweather.webng.com/weather.shtml

Latest ConditionsUpdated 10:40:00 AM EST Saturday, Feb 25, 2017
Currently Today's Max Today's Min Today's Average
Temperature 62.6°F17.0°C 62.6°F17.0°C 59.7°F15.4°C 60.4°F15.8°C
Dew Point 56.4°F13.6°C 56.9°F13.8°C 54.9°F12.7°C 56.0°F13.3°C
Winds 2.2 mph E3.5 kmh E 8.3 mph ESE13.4 kmh ESE - 2.3 mph 3.7 kmh
Wind Gusts 10.7 mph17.2 kmh 15.9 mph25.6 kmh - -
Humidity 80% 87% 80% 86%
Pressure 29.81 in1009.5 mb 29.95 in1014.2 mb 29.81 in1009.5 mb -
Hour Temp Dew Point Humidity Winds Wind Gusts Pressure Precip Precip Rate Daily Precip Total
10:40 AM 62.6°F17.0°C 56.4°F13.6°C 80% 2.2 mph E3.5 kmh E 10.7 mph17.2 kmh 29.81 in1009.5 mb 0.00 in0.0 mm 0.00 in0.0 mm 0.00 in0.0 mm
10:30 AM 62.4°F16.9°C 56.9°F13.8°C 82% 3.1 mph S5.0 kmh S 8.3 mph13.4 kmh 29.82 in1009.8 mb 0.00 in0.0 mm 0.00 in0.0 mm 0.00 in0.0 mm
10:20 AM 61.5°F16.4°C 56.3°F13.5°C 83% 3.1 mph SSE5.0 kmh SSE 14.5 mph23.3 kmh 29.82 in1009.8 mb 0.00 in0.0 mm 0.00 in0.0 mm 0.00 in0.0 mm
10:10 AM 61.0°F16.1°C 56.1°F13.4°C 84% 4.5 mph NE7.2 kmh NE 9.2 mph14.8 kmh 29.82 in1009.8 mb 0.00 in0.0 mm 0.00 in0.0 mm 0.00 in0.0 mm
10:00 AM 60.6°F15.9°C 56.1°F13.4°C 85% 3.1 mph SSE5.0 kmh SSE 12.1 mph19.5 kmh 29.83 in1010.2 mb 0.00 in0.0 mm 0.00 in0.0 mm 0.00 in0.0 mm
09:50 AM 60.4°F15.8°C 55.9°F13.3°C 85% 3.8 mph S6.1 kmh S 9.8 mph15.8 kmh 29.84 in1010.5 mb 0.00 in0.0 mm 0.00 in0.0 mm 0.00 in0.0 mm
09:40 AM 60.4°F15.8°C 56.2°F13.4°C 86% 4.5 mph SSE7.2 kmh SSE 9.8 mph15.8 kmh 29.84 in1010.5 mb 0.00 in0.0 mm 0.00 in0.0 mm 0.00 in0.0 mm
09:30 AM 60.3°F15.7°C 56.1°F13.4°C 86% 3.1 mph SSE5.0 kmh SSE 15.2 mph24.5 kmh 29.84 in1010.5 mb 0.00 in0.0 mm 0.00 in0.0 mm 0.00 in0.0 mm
09:20 AM 60.1°F15.6°C 55.9°F13.3°C 86% 5.4 mph E8.7 kmh E 11.4 mph18.3 kmh 29.84 in1010.5 mb 0.00 in0.0 mm 0.00 in0.0 mm 0.00 in0.0 mm
09:10 AM 60.3°F15.7°C 56.1°F13.4°C 86% 3.1 mph SSW5.0 kmh SSW 12.1 mph19.5 kmh 29.84 in1010.5 mb 0.00 in0.0 mm 0.00 in0.0 mm 0.00 in0.0 mm
09:00 AM 60.1°F15.6°C 55.9°F13.3°C 86% 6.9 mph S11.1 kmh S 15.9 mph25.6 kmh 29.85 in1010.8 mb 0.00 in0.0 mm 0.00 in0.0 mm 0.00 in0.0 mm
08:50 AM 60.1°F15.6°C 55.9°F13.3°C 86% 8.3 mph ESE13.4 kmh ESE 15.9 mph25.6 kmh 29.85 in1010.8 mb 0.00 in0.0 mm 0.00 in0.0 mm 0.00 in0.0 mm
08:20 AM 59.9°F15.5°C 56.0°F13.3°C 87% 3.1 mph SE5.0 kmh SE 7.6 mph12.2 kmh 29.86 in1011.2 mb 0.00 in0.0 mm 0.00 in0.0 mm 0.00 in0.0 mm
08:10 AM 59.7°F15.4°C 55.9°F13.3°C 87% 6.0 mph E9.7 kmh E 6.9 mph11.1 kmh 29.86 in1011.2 mb 0.00 in0.0 mm 0.00 in0.0 mm 0.00 in0.0 mm
08:00 AM 59.7°F15.4°C 55.5°F13.1°C 86% 0.7 mph S1.1 kmh S 6.9 mph11.1 kmh 29.86 in1011.2 mb 0.00 in0.0 mm 0.00 in0.0 mm 0.00 in0.0 mm
07:50 AM 59.7°F15.4°C 55.5°F13.1°C 86% 1.6 mph ESE2.6 kmh ESE 9.2 mph14.8 kmh 29.87 in1011.5 mb 0.00 in0.0 mm 0.00 in0.0 mm 0.00 in0.0 mm
07:40 AM 59.7°F15.4°C 55.5°F13.1°C 86% 2.2 mph ESE3.5 kmh ESE 9.2 mph14.8 kmh 29.87 in1011.5 mb 0.00 in0.0 mm 0.00 in0.0 mm 0.00 in0.0 mm
07:30 AM 59.7°F15.4°C 55.5°F13.1°C 86% 3.8 mph SE6.1 kmh SE 9.2 mph14.8 kmh 29.87 in1011.5 mb 0.00 in0.0 mm 0.00 in0.0 mm 0.00 in0.0 mm
07:20 AM 59.7°F15.4°C 55.5°F13.1°C 86% 0.7 mph SW1.1 kmh SW 6.9 mph11.1 kmh 29.87 in1011.5 mb 0.00 in0.0 mm 0.00 in0.0 mm 0.00 in0.0 mm
07:10 AM 59.9°F15.5°C 55.7°F13.2°C 86% 2.2 mph ENE3.5 kmh ENE 3.8 mph6.1 kmh 29.87 in1011.5 mb 0.00 in0.0 mm 0.00 in0.0 mm 0.00 in0.0 mm
07:00 AM 59.9°F15.5°C 55.7°F13.2°C 86% 1.6 mph SE2.6 kmh SE 9.8 mph15.8 kmh 29.87 in1011.5 mb 0.00 in0.0 mm 0.00 in0.0 mm 0.00 in0.0 mm
06:50 AM 59.9°F15.5°C 56.0°F13.3°C 87% 1.6 mph SSE2.6 kmh SSE 6.0 mph9.7 kmh 29.88 in1011.9 mb 0.00 in0.0 mm 0.00 in0.0 mm 0.00 in0.0 mm
06:40 AM 59.9°F15.5°C 56.0°F13.3°C 87% Calm Calm 6.0 mph9.7 kmh 29.88 in1011.9 mb 0.00 in0.0 mm 0.00 in0.0 mm 0.00 in0.0 mm
06:30 AM 59.9°F15.5°C 56.0°F13.3°C 87% 1.6 mph SSE2.6 kmh SSE 8.3 mph13.4 kmh 29.88 in1011.9 mb 0.00 in0.0 mm 0.00 in0.0 mm 0.00 in0.0 mm
06:20 AM 59.9°F15.5°C 56.0°F13.3°C 87% 2.2 mph SW3.5 kmh SW 7.6 mph12.2 kmh 29.88 in1011.9 mb 0.00 in0.0 mm 0.00 in0.0 mm 0.00 in0.0 mm
06:10 AM 59.9°F15.5°C 56.0°F13.3°C 87% 0.7 mph SSE1.1 kmh SSE 8.3 mph13.4 kmh 29.88 in1011.9 mb 0.00 in0.0 mm 0.00 in0.0 mm 0.00 in0.0 mm
06:00 AM 59.9°F15.5°C 56.0°F13.3°C 87% 0.7 mph SE1.1 kmh SE 13.6 mph21.9 kmh 29.90 in1012.5 mb 0.00 in0.0 mm 0.00 in0.0 mm 0.00 in0.0 mm
05:50 AM 59.9°F15.5°C 56.0°F13.3°C 87% 3.1 mph SE5.0 kmh SE 14.5 mph23.3 kmh 29.89 in1012.2 mb 0.00 in0.0 mm 0.00 in0.0 mm 0.00 in0.0 mm
05:40 AM 59.9°F15.5°C 56.0°F13.3°C 87% 3.1 mph SE5.0 kmh SE 9.2 mph14.8 kmh 29.89 in1012.2 mb 0.00 in0.0 mm 0.00 in0.0 mm 0.00 in0.0 mm
05:30 AM 60.1°F15.6°C 56.2°F13.4°C 87% 2.2 mph S3.5 kmh S 9.8 mph15.8 kmh 29.89 in1012.2 mb 0.00 in0.0 mm 0.00 in0.0 mm 0.00 in0.0 mm
05:20 AM 60.3°F15.7°C 56.4°F13.6°C 87% 3.1 mph SSE5.0 kmh SSE 9.8 mph15.8 kmh 29.89 in1012.2 mb 0.00 in0.0 mm 0.00 in0.0 mm 0.00 in0.0 mm
05:10 AM 60.3°F15.7°C 56.4°F13.6°C 87% 4.5 mph SSW7.2 kmh SSW 7.6 mph12.2 kmh 29.89 in1012.2 mb 0.00 in0.0 mm 0.00 in0.0 mm 0.00 in0.0 mm
05:00 AM 60.1°F15.6°C 56.2°F13.4°C 87% 2.2 mph SSE3.5 kmh SSE 7.6 mph12.2 kmh 29.90 in1012.5 mb 0.00 in0.0 mm 0.00 in0.0 mm 0.00 in0.0 mm
04:50 AM 60.1°F15.6°C 56.2°F13.4°C 87% 2.2 mph SSE3.5 kmh SSE 6.9 mph11.1 kmh 29.91 in1012.9 mb 0.00 in0.0 mm 0.00 in0.0 mm 0.00 in0.0 mm
04:40 AM 60.1°F15.6°C 56.2°F13.4°C 87% 3.1 mph WSW5.0 kmh WSW 8.3 mph13.4 kmh 29.91 in1012.9 mb 0.00 in0.0 mm 0.00 in0.0 mm 0.00 in0.0 mm
04:30 AM 60.1°F15.6°C 56.2°F13.4°C 87% 1.6 mph SSW2.6 kmh SSW 5.4 mph8.7 kmh 29.91 in1012.9 mb 0.00 in0.0 mm 0.00 in0.0 mm 0.00 in0.0 mm
04:20 AM 60.3°F15.7°C 56.4°F13.6°C 87% 2.2 mph SW3.5 kmh SW 6.0 mph9.7 kmh 29.91 in1012.9 mb 0.00 in0.0 mm 0.00 in0.0 mm 0.00 in0.0 mm
04:10 AM 60.3°F15.7°C 56.4°F13.6°C 87% 1.6 mph WSW2.6 kmh WSW 6.9 mph11.1 kmh 29.90 in1012.5 mb 0.00 in0.0 mm 0.00 in0.0 mm 0.00 in0.0 mm
04:00 AM 60.4°F15.8°C 56.2°F13.4°C 86% 2.2 mph SW3.5 kmh SW 13.0 mph20.9 kmh 29.90 in1012.5 mb 0.00 in0.0 mm 0.00 in0.0 mm 0.00 in0.0 mm
03:50 AM 60.6°F15.9°C 56.4°F13.6°C 86% 1.6 mph SSW2.6 kmh SSW 11.4 mph18.3 kmh 29.90 in1012.5 mb 0.00 in0.0 mm 0.00 in0.0 mm 0.00 in0.0 mm
03:40 AM 60.6°F15.9°C 56.4°F13.6°C 86% 3.1 mph SE5.0 kmh SE 9.8 mph15.8 kmh 29.91 in1012.9 mb 0.00 in0.0 mm 0.00 in0.0 mm 0.00 in0.0 mm
03:20 AM 60.8°F16.0°C 56.3°F13.5°C 85% 2.2 mph E3.5 kmh E 9.2 mph14.8 kmh 29.91 in1012.9 mb 0.00 in0.0 mm 0.00 in0.0 mm 0.00 in0.0 mm
03:10 AM 60.8°F16.0°C 56.3°F13.5°C 85% 1.6 mph E2.6 kmh E 6.9 mph11.1 kmh 29.91 in1012.9 mb 0.00 in0.0 mm 0.00 in0.0 mm 0.00 in0.0 mm
03:00 AM 60.8°F16.0°C 56.3°F13.5°C 85% 1.6 mph E2.6 kmh E 8.3 mph13.4 kmh 29.91 in1012.9 mb 0.00 in0.0 mm 0.00 in0.0 mm 0.00 in0.0 mm
02:50 AM 61.0°F16.1°C 56.5°F13.6°C 85% 0.7 mph SSE1.1 kmh SSE 6.9 mph11.1 kmh 29.92 in1013.2 mb 0.00 in0.0 mm 0.00 in0.0 mm 0.00 in0.0 mm
02:40 AM 61.0°F16.1°C 56.5°F13.6°C 85% 2.2 mph E3.5 kmh E 8.3 mph13.4 kmh 29.93 in1013.5 mb 0.00 in0.0 mm 0.00 in0.0 mm 0.00 in0.0 mm
02:30 AM 61.0°F16.1°C 56.1°F13.4°C 84% Calm Calm 3.1 mph5.0 kmh 29.92 in1013.2 mb 0.00 in0.0 mm 0.00 in0.0 mm 0.00 in0.0 mm
02:20 AM 61.0°F16.1°C 56.5°F13.6°C 85% 0.7 mph SE1.1 kmh SE 6.0 mph9.7 kmh 29.93 in1013.5 mb 0.00 in0.0 mm 0.00 in0.0 mm 0.00 in0.0 mm
02:10 AM 60.8°F16.0°C 56.3°F13.5°C 85% 1.6 mph S2.6 kmh S 5.4 mph8.7 kmh 29.93 in1013.5 mb 0.00 in0.0 mm 0.00 in0.0 mm 0.00 in0.0 mm
02:00 AM 60.8°F16.0°C 56.3°F13.5°C 85% Calm Calm 5.4 mph8.7 kmh 29.93 in1013.5 mb 0.00 in0.0 mm 0.00 in0.0 mm 0.00 in0.0 mm
01:50 AM 60.6°F15.9°C 56.4°F13.6°C 86% 2.2 mph ESE3.5 kmh ESE 9.8 mph15.8 kmh 29.93 in1013.5 mb 0.00 in0.0 mm 0.00 in0.0 mm 0.00 in0.0 mm
01:40 AM 60.6°F15.9°C 56.1°F13.4°C 85% 2.2 mph SE3.5 kmh SE 6.0 mph9.7 kmh 29.94 in1013.9 mb 0.00 in0.0 mm 0.00 in0.0 mm 0.00 in0.0 mm
01:30 AM 60.4°F15.8°C 55.9°F13.3°C 85% Calm Calm 6.0 mph9.7 kmh 29.94 in1013.9 mb 0.00 in0.0 mm 0.00 in0.0 mm 0.00 in0.0 mm
01:20 AM 60.4°F15.8°C 55.9°F13.3°C 85% 0.7 mph ESE1.1 kmh ESE 6.0 mph9.7 kmh 29.94 in1013.9 mb 0.00 in0.0 mm 0.00 in0.0 mm 0.00 in0.0 mm
01:10 AM 60.3°F15.7°C 55.4°F13.0°C 84% 0.7 mph SSE1.1 kmh SSE 4.5 mph7.2 kmh 29.95 in1014.2 mb 0.00 in0.0 mm 0.00 in0.0 mm 0.00 in0.0 mm
01:00 AM 60.4°F15.8°C 55.6°F13.1°C 84% Calm Calm 3.1 mph5.0 kmh 29.94 in1013.9 mb 0.00 in0.0 mm 0.00 in0.0 mm 0.00 in0.0 mm
12:50 AM 60.4°F15.8°C 55.6°F13.1°C 84% Calm Calm 4.5 mph7.2 kmh 29.94 in1013.9 mb 0.00 in0.0 mm 0.00 in0.0 mm 0.00 in0.0 mm
12:20 AM 60.6°F15.9°C 55.1°F12.8°C 82% 2.2 mph ESE3.5 kmh ESE 8.3 mph13.4 kmh 29.95 in1014.2 mb 0.00 in0.0 mm 0.00 in0.0 mm 0.00 in0.0 mm
12:10 AM 60.6°F15.9°C 55.1°F12.8°C 82% 1.6 mph SSE2.6 kmh SSE 6.9 mph11.1 kmh 29.94 in1013.9 mb 0.00 in0.0 mm 0.00 in0.0 mm 0.00 in0.0 mm
12:00 AM 60.4°F15.8°C 54.9°F12.7°C 82% 0.7 mph SE1.1 kmh SE 3.1 mph5.0 kmh 29.95 in1014.2 mb 0.00 in0.0 mm 0.00 in0.0 mm 0.00 in0.0 mm